Time;durP1;ratioP1;P1;durP2;ratioP2;P2;SDS_P1;SDS_P2;PMS_P1;PMS_P2;Temp;Humidity;BMP_temperature;BMP_pressure;BME280_temperature;BME280_humidity;BME280_pressure;Samples;Min_cycle;Max_cycle;Signal;HPM_P1;HPM_P2
2022/10/01 00:01:11;;;;;;;4.20;3.30;;;;;;;8.66;71.72;98167.66;5111051;27;20046;-82
2022/10/01 00:03:37;;;;;;;7.35;3.42;;;;;;;8.92;71.48;98187.28;5109519;27;20026;-82
2022/10/01 00:06:15;;;;;;;5.28;3.08;;;;;;;9.19;70.55;98176.59;5107957;27;20031;-82
2022/10/01 00:08:41;;;;;;;3.28;2.95;;;;;;;9.62;69.04;98163.81;5110914;27;20042;-80
2022/10/01 00:11:13;;;;;;;3.47;2.88;;;;;;;9.79;67.93;98160.94;5112879;27;20043;-82
2022/10/01 00:13:42;;;;;;;4.75;3.50;;;;;;;9.52;69.18;98165.63;5108212;28;20028;-82
2022/10/01 00:16:11;;;;;;;3.03;2.67;;;;;;;9.87;67.38;98163.13;5107585;28;20056;-80
2022/10/01 00:18:38;;;;;;;7.18;5.50;;;;;;;9.38;68.43;98135.97;5103279;28;20015;-82
2022/10/01 00:21:17;;;;;;;5.82;3.08;;;;;;;9.73;68.64;98162.00;5102356;28;20038;-81
2022/10/01 00:23:42;;;;;;;6.88;3.70;;;;;;;9.64;67.86;98126.25;5103266;28;20027;-82
2022/10/01 00:26:17;;;;;;;6.72;3.85;;;;;;;9.53;68.79;98157.38;5103093;28;20593;-82
2022/10/01 00:28:45;;;;;;;5.90;3.08;;;;;;;9.70;68.52;98142.00;5106728;27;20481;-82
2022/10/01 00:31:12;;;;;;;8.77;4.80;;;;;;;9.60;69.05;98136.63;5106893;28;20032;-81
2022/10/01 00:33:38;;;;;;;3.38;3.08;;;;;;;9.62;68.23;98128.38;5104593;28;20054;-81
2022/10/01 00:36:05;;;;;;;4.13;3.35;;;;;;;9.78;68.00;98127.38;5104224;28;20055;-82
2022/10/01 00:38:31;;;;;;;9.50;4.90;;;;;;;9.39;70.27;98142.13;5101602;28;20063;-81
2022/10/01 00:40:57;;;;;;;6.03;5.05;;;;;;;8.74;72.82;98119.28;5106869;28;20108;-82
2022/10/01 00:43:35;;;;;;;5.78;3.53;;;;;;;9.41;69.14;98121.34;5108804;28;20028;-82
2022/10/01 00:46:07;;;;;;;7.03;4.68;;;;;;;9.26;70.52;98129.25;5105474;28;20020;-82
2022/10/01 00:48:43;;;;;;;4.07;3.42;;;;;;;9.00;70.93;98113.09;5107809;28;20039;-81
2022/10/01 00:51:09;;;;;;;4.88;3.03;;;;;;;9.45;68.57;98112.59;5101856;28;20432;-82
2022/10/01 00:53:36;;;;;;;3.88;3.17;;;;;;;9.69;68.14;98111.09;5098860;28;20031;-81
2022/10/01 00:56:02;;;;;;;5.78;4.22;;;;;;;9.41;69.11;98124.00;5103245;28;20150;-82
2022/10/01 00:58:28;;;;;;;4.72;3.80;;;;;;;9.35;69.51;98104.53;5105455;28;20114;-81
2022/10/01 01:00:55;;;;;;;4.05;3.58;;;;;;;9.72;68.42;98113.22;5072692;28;20462;-82
2022/10/01 01:03:20;;;;;;;5.13;4.05;;;;;;;9.27;70.65;98109.53;5104414;28;20035;-81
2022/10/01 01:05:46;;;;;;;3.50;3.13;;;;;;;9.64;69.07;98096.94;5071789;28;20599;-81
2022/10/01 01:08:13;;;;;;;5.90;3.90;;;;;;;9.50;69.18;98087.84;5084841;28;20035;-82
2022/10/01 01:11:17;;;;;;;5.95;3.85;;;;;;;9.15;71.18;98100.97;5076597;28;20027;-82
2022/10/01 01:14:11;;;;;;;4.40;3.60;;;;;;;9.60;69.78;98098.53;5105384;28;20512;-82
2022/10/01 01:16:48;;;;;;;4.65;3.70;;;;;;;9.67;68.36;98083.91;5098865;28;20024;-82
2022/10/01 01:19:59;;;;;;;5.18;3.15;;;;;;;9.62;69.03;98094.53;5101345;28;20114;-82
2022/10/01 01:22:29;;;;;;;5.43;4.20;;;;;;;9.56;69.13;98084.13;5101574;27;20457;-82
2022/10/01 01:25:11;;;;;;;5.18;4.43;;;;;;;8.91;72.75;98068.63;5104393;28;20032;-82
2022/10/01 01:28:22;;;;;;;4.03;3.22;;;;;;;9.55;69.99;98071.84;5108364;28;20027;-80
2022/10/01 01:30:51;;;;;;;5.05;3.38;;;;;;;9.33;70.83;98066.69;5089808;27;20047;-80
2022/10/01 01:33:21;;;;;;;4.03;3.60;;;;;;;9.44;70.35;98071.00;5104006;28;20060;-80
2022/10/01 01:35:59;;;;;;;6.30;4.55;;;;;;;9.76;69.33;98070.88;5101245;28;20035;-81
2022/10/01 01:38:32;;;;;;;5.22;3.67;;;;;;;9.72;69.23;98056.47;5102173;28;20031;-81
2022/10/01 01:41:00;;;;;;;3.65;3.08;;;;;;;9.58;69.47;98063.34;5104821;28;20035;-80
2022/10/01 01:43:32;;;;;;;6.20;3.42;;;;;;;9.69;69.04;98030.34;5105146;28;20380;-80
2022/10/01 01:46:00;;;;;;;5.50;4.30;;;;;;;9.83;68.18;98045.56;5102842;28;20548;-80
2022/10/01 01:48:27;;;;;;;4.57;4.05;;;;;;;9.73;69.43;98055.41;5105811;28;20035;-81
2022/10/01 01:50:58;;;;;;;5.93;4.32;;;;;;;9.72;69.29;98041.28;5101205;28;20495;-80
2022/10/01 01:53:25;;;;;;;7.07;3.70;;;;;;;9.78;69.41;98039.44;5106217;28;20042;-80
2022/10/01 01:55:51;;;;;;;4.82;4.40;;;;;;;9.10;71.97;98034.38;5105601;28;20097;-80
2022/10/01 01:58:17;;;;;;;9.27;6.45;;;;;;;8.68;73.32;98011.25;5107994;28;20031;-81
2022/10/01 02:00:45;;;;;;;8.93;4.97;;;;;;;9.02;71.94;98022.38;5104395;28;20038;-80
2022/10/01 02:03:10;;;;;;;4.85;3.70;;;;;;;8.82;72.98;98036.34;5095841;28;20034;-80
2022/10/01 02:05:45;;;;;;;6.78;3.70;;;;;;;9.30;70.76;98007.84;5102955;28;20387;-81
2022/10/01 02:08:46;;;;;;;8.63;4.20;;;;;;;9.43;69.93;98013.50;5106317;28;20049;-81
2022/10/01 02:11:27;;;;;;;4.97;3.78;;;;;;;9.43;70.52;98026.00;5101662;28;20030;-81
2022/10/01 02:14:20;;;;;;;8.68;3.63;;;;;;;9.19;70.97;97996.34;5103360;28;20038;-80
2022/10/01 02:17:15;;;;;;;8.65;4.70;;;;;;;8.79;72.57;97988.16;5120437;27;20027;-80
2022/10/01 02:19:58;;;;;;;5.75;3.28;;;;;;;9.47;70.49;98019.91;5103994;28;20564;-80
2022/10/01 02:22:30;;;;;;;4.50;3.88;;;;;;;9.40;70.93;97999.88;5101692;28;20059;-80
2022/10/01 02:25:00;;;;;;;5.72;3.70;;;;;;;9.44;70.96;98006.28;5104400;28;20102;-80
2022/10/01 02:27:52;;;;;;;3.60;3.10;;;;;;;9.52;70.73;98017.22;5084122;28;20367;-80
2022/10/01 02:30:17;;;;;;;7.03;3.65;;;;;;;9.52;71.11;98008.47;5104186;28;20024;-80
2022/10/01 02:32:45;;;;;;;4.85;2.97;;;;;;;9.45;71.19;98015.88;5100278;28;20039;-80
2022/10/01 02:35:14;;;;;;;6.45;3.95;;;;;;;9.39;71.08;97992.97;5105667;28;20488;-80
2022/10/01 02:37:43;;;;;;;4.30;3.55;;;;;;;9.51;70.76;98012.19;5098536;28;20031;-80
2022/10/01 02:40:14;;;;;;;5.55;3.90;;;;;;;9.47;70.61;97992.47;5120562;27;20027;-80
2022/10/01 02:42:47;;;;;;;5.47;3.58;;;;;;;9.55;70.44;98006.06;5068947;28;20138;-80
2022/10/01 02:45:16;;;;;;;4.00;3.60;;;;;;;9.56;71.23;98013.00;5103450;28;20027;-80
2022/10/01 02:47:48;;;;;;;3.80;3.13;;;;;;;9.45;71.23;97986.59;5102743;28;20651;-80
2022/10/01 02:50:14;;;;;;;7.05;3.95;;;;;;;9.41;71.12;97974.88;5105160;28;20085;-81
2022/10/01 02:53:03;;;;;;;5.53;3.75;;;;;;;9.54;70.48;97985.03;5104817;28;20441;-80
2022/10/01 02:55:35;;;;;;;4.30;3.38;;;;;;;9.67;71.13;97989.84;5102697;28;20764;-81
2022/10/01 02:58:00;;;;;;;3.67;3.30;;;;;;;9.47;71.74;97976.47;5105348;28;20076;-81
2022/10/01 03:00:27;;;;;;;6.53;3.80;;;;;;;9.58;70.81;97967.44;5101012;28;20032;-80
2022/10/01 03:02:53;;;;;;;7.07;4.05;;;;;;;9.57;71.16;97979.16;5105520;28;20102;-80
2022/10/01 03:05:19;;;;;;;10.98;3.53;;;;;;;9.68;71.08;97973.59;5106519;28;20519;-81
2022/10/01 03:07:45;;;;;;;9.82;3.67;;;;;;;9.58;70.92;97938.16;5105258;28;20058;-81
2022/10/01 03:10:12;;;;;;;6.88;3.97;;;;;;;9.52;71.94;97949.88;5102379;28;20053;-81
2022/10/01 03:12:41;;;;;;;4.22;3.70;;;;;;;9.57;71.09;97931.19;5099848;28;20032;-81
2022/10/01 03:15:07;;;;;;;7.05;4.82;;;;;;;8.95;74.31;97945.41;5100254;28;20108;-80
2022/10/01 03:17:34;;;;;;;6.13;4.68;;;;;;;8.80;75.41;97932.03;5106672;28;20751;-81
2022/10/01 03:20:00;;;;;;;9.02;5.50;;;;;;;8.79;76.55;97927.78;5082132;28;20115;-81
2022/10/01 03:22:25;;;;;;;7.30;3.80;;;;;;;8.69;75.19;97905.66;5103876;28;20438;-81
2022/10/01 03:24:52;;;;;;;4.90;4.30;;;;;;;8.98;74.93;97904.16;5091348;28;20032;-81
2022/10/01 03:27:18;;;;;;;7.30;4.03;;;;;;;9.28;72.59;97892.81;5083911;28;20024;-81
2022/10/01 03:29:44;;;;;;;5.63;3.60;;;;;;;9.37;72.64;97894.69;5105590;28;20023;-80
2022/10/01 03:32:10;;;;;;;6.70;4.47;;;;;;;9.27;73.70;97900.00;5084082;28;20032;-81
2022/10/01 03:34:36;;;;;;;10.00;5.30;;;;;;;9.16;74.28;97895.69;5101258;28;20027;-80
2022/10/01 03:37:02;;;;;;;5.35;4.20;;;;;;;9.23;73.28;97882.13;5070211;28;20077;-80
2022/10/01 03:39:27;;;;;;;7.32;4.25;;;;;;;9.13;74.80;97884.78;5105333;28;20038;-81
2022/10/01 03:41:53;;;;;;;6.50;4.97;;;;;;;9.27;73.69;97891.19;5100873;28;20035;-80
2022/10/01 03:44:18;;;;;;;7.95;4.60;;;;;;;9.34;73.36;97892.56;5087040;28;20063;-81
2022/10/01 03:46:43;;;;;;;4.78;4.20;;;;;;;9.27;74.18;97892.00;5102233;28;20023;-80
2022/10/01 03:49:09;;;;;;;7.78;5.68;;;;;;;9.27;73.94;97883.22;5108517;28;20051;-80
2022/10/01 03:51:36;;;;;;;5.90;4.57;;;;;;;9.35;73.31;97885.38;5105732;28;20042;-80
2022/10/01 03:54:02;;;;;;;8.02;5.22;;;;;;;9.26;73.12;97853.13;5108662;28;20102;-81
2022/10/01 03:56:28;;;;;;;5.40;4.13;;;;;;;9.48;72.60;97874.22;5109131;28;20039;-81
2022/10/01 03:58:53;;;;;;;8.75;4.60;;;;;;;9.67;72.00;97864.63;5107715;28;20051;-81
2022/10/01 04:01:20;;;;;;;4.65;4.15;;;;;;;9.52;72.90;97845.97;5104591;28;20096;-81
2022/10/01 04:03:46;;;;;;;5.57;3.60;;;;;;;9.55;72.17;97861.41;5077378;28;20031;-80
2022/10/01 04:06:12;;;;;;;5.78;4.10;;;;;;;9.41;73.08;97868.34;5104502;28;20028;-80
2022/10/01 04:08:37;;;;;;;7.72;5.38;;;;;;;9.39;73.98;97878.47;5111141;28;20107;-81
2022/10/01 04:11:07;;;;;;;6.55;3.88;;;;;;;9.52;73.09;97877.94;5105095;28;20107;-81
2022/10/01 04:13:33;;;;;;;4.47;3.10;;;;;;;9.41;72.68;97865.69;5111670;28;20084;-80
2022/10/01 04:15:59;;;;;;;5.85;4.68;;;;;;;9.17;74.12;97865.38;5111321;28;20042;-80
2022/10/01 04:18:24;;;;;;;6.35;3.97;;;;;;;9.31;73.20;97886.94;5084162;28;20032;-80
2022/10/01 04:20:50;;;;;;;7.38;3.65;;;;;;;9.52;72.95;97885.94;5109578;28;20036;-81
2022/10/01 04:23:15;;;;;;;5.68;3.38;;;;;;;9.40;73.27;97870.19;5107520;28;20103;-81
2022/10/01 04:25:41;;;;;;;7.65;3.45;;;;;;;9.40;72.76;97869.38;5108405;28;20027;-80
2022/10/01 04:28:10;;;;;;;5.20;3.83;;;;;;;9.69;72.82;97887.28;5106097;28;20023;-82
2022/10/01 04:30:39;;;;;;;3.92;3.53;;;;;;;9.65;72.02;97896.06;5108183;28;20037;-81
2022/10/01 04:33:05;;;;;;;7.03;3.78;;;;;;;9.20;73.93;97887.97;5101428;28;20448;-80
2022/10/01 04:35:32;;;;;;;3.67;3.33;;;;;;;9.35;73.68;97888.03;5102837;28;20032;-81
2022/10/01 04:38:11;;;;;;;4.88;3.60;;;;;;;9.45;73.41;97872.88;5109172;28;20027;-81
2022/10/01 04:40:37;;;;;;;9.30;5.07;;;;;;;9.05;78.19;97872.78;5100815;28;20371;-82
2022/10/01 04:43:03;;;;;;;8.52;4.88;;;;;;;8.90;79.22;97876.19;5105683;28;20031;-82
2022/10/01 04:45:29;;;;;;;7.30;4.90;;;;;;;9.01;77.07;97869.03;5111910;28;20139;-82
2022/10/01 04:47:55;;;;;;;7.80;4.30;;;;;;;9.13;76.87;97885.56;5083122;28;20036;-82
2022/10/01 04:50:23;;;;;;;5.00;3.75;;;;;;;9.34;74.90;97873.91;5108515;28;20023;-83
2022/10/01 04:52:49;;;;;;;5.10;3.55;;;;;;;9.45;74.64;97851.56;5087772;28;20368;-84
2022/10/01 04:55:16;;;;;;;6.15;3.55;;;;;;;9.35;76.57;97867.50;5105797;28;20016;-83
2022/10/01 04:57:42;;;;;;;5.88;3.70;;;;;;;9.52;73.82;97852.06;5105932;28;20080;-83
2022/10/01 05:00:11;;;;;;;4.85;3.83;;;;;;;9.27;75.40;97837.94;5096780;28;20443;-84
2022/10/01 05:02:36;;;;;;;5.68;4.80;;;;;;;9.13;77.56;97836.88;5105412;28;20497;-83
2022/10/01 05:05:06;;;;;;;5.95;4.30;;;;;;;9.13;77.22;97839.53;5121757;27;20039;-84
2022/10/01 05:07:33;;;;;;;11.18;4.45;;;;;;;9.32;76.23;97830.78;5107170;28;20044;-84
2022/10/01 05:09:59;;;;;;;4.30;3.90;;;;;;;9.15;76.17;97798.28;5105404;28;20027;-84
2022/10/01 05:12:26;;;;;;;7.75;4.10;;;;;;;9.02;76.84;97799.56;5110614;28;20035;-84
2022/10/01 05:14:52;;;;;;;5.07;4.18;;;;;;;9.21;77.42;97794.56;5110876;28;20089;-84
2022/10/01 05:17:18;;;;;;;6.30;3.30;;;;;;;9.14;77.37;97788.69;5104225;28;20028;-84
2022/10/01 05:19:44;;;;;;;6.28;3.72;;;;;;;9.40;77.10;97797.47;5105340;28;20058;-84
2022/10/01 05:22:09;;;;;;;4.32;3.83;;;;;;;9.29;77.34;97767.41;5076295;28;20028;-84
2022/10/01 05:24:34;;;;;;;6.60;3.97;;;;;;;9.44;77.92;97787.88;5113429;28;20023;-84
2022/10/01 05:27:00;;;;;;;5.82;4.18;;;;;;;9.15;80.31;97786.84;5105872;28;20035;-84
2022/10/01 05:29:25;;;;;;;5.05;4.18;;;;;;;9.39;78.67;97790.56;5087451;28;20070;-84
2022/10/01 05:31:51;;;;;;;7.32;4.40;;;;;;;9.24;77.74;97764.72;5108643;28;20038;-84
2022/10/01 05:34:16;;;;;;;6.18;3.75;;;;;;;9.15;79.62;97773.53;5090464;28;20060;-84
2022/10/01 05:36:42;;;;;;;5.82;4.50;;;;;;;9.15;79.74;97774.31;5074218;28;20086;-84
2022/10/01 05:39:07;;;;;;;5.00;4.50;;;;;;;9.10;81.04;97776.16;5093029;28;20519;-84
2022/10/01 05:41:32;;;;;;;4.90;3.63;;;;;;;9.27;80.00;97760.72;5092493;28;20051;-85
2022/10/01 05:43:58;;;;;;;6.53;4.30;;;;;;;9.21;81.18;97759.94;5092553;28;20035;-84
2022/10/01 05:46:23;;;;;;;6.18;3.70;;;;;;;9.17;80.32;97744.78;5103410;28;20515;-84
2022/10/01 05:48:50;;;;;;;4.50;3.85;;;;;;;9.07;80.27;97714.41;5106235;28;20063;-83
2022/10/01 05:51:16;;;;;;;6.90;4.13;;;;;;;9.14;80.60;97734.66;5077186;28;20497;-84
2022/10/01 05:53:41;;;;;;;5.45;3.78;;;;;;;9.20;81.04;97746.88;5104224;28;20530;-84
2022/10/01 05:56:08;;;;;;;7.38;3.58;;;;;;;9.26;81.93;97745.84;5128714;27;20123;-84
2022/10/01 05:58:33;;;;;;;6.30;3.45;;;;;;;9.34;81.19;97731.97;5124948;27;20084;-84
2022/10/01 06:00:59;;;;;;;6.07;3.42;;;;;;;9.31;81.36;97709.34;5106195;28;20031;-84
2022/10/01 06:03:27;;;;;;;5.55;3.45;;;;;;;9.03;82.45;97692.06;5088618;28;20028;-83
2022/10/01 06:05:53;;;;;;;7.15;3.47;;;;;;;9.03;82.42;97678.75;5105359;28;20020;-84
2022/10/01 06:08:18;;;;;;;5.28;3.53;;;;;;;9.06;82.31;97669.44;5092452;28;20097;-84
2022/10/01 06:10:45;;;;;;;4.10;3.55;;;;;;;9.11;82.00;97666.75;5090239;28;20038;-84
2022/10/01 06:13:16;;;;;;;4.10;3.70;;;;;;;8.98;84.19;97688.59;5101753;28;20049;-85
2022/10/01 06:15:43;;;;;;;3.97;3.05;;;;;;;9.03;83.78;97668.13;5084589;28;20028;-84
2022/10/01 06:18:10;;;;;;;3.92;3.08;;;;;;;9.01;83.74;97661.47;5107017;28;20067;-85
2022/10/01 06:20:37;;;;;;;3.13;2.83;;;;;;;9.35;82.16;97675.00;5086466;28;20031;-84
2022/10/01 06:23:10;;;;;;;4.78;3.22;;;;;;;9.34;82.57;97665.41;5105452;28;20032;-84
2022/10/01 06:25:37;;;;;;;3.58;3.03;;;;;;;9.44;81.48;97660.88;5082957;28;20024;-83
2022/10/01 06:28:04;;;;;;;4.45;3.33;;;;;;;9.42;82.64;97659.53;5112383;28;20051;-86
2022/10/01 06:30:31;;;;;;;2.95;2.65;;;;;;;9.40;81.83;97635.03;5109251;28;20083;-84
2022/10/01 06:33:03;;;;;;;3.08;2.72;;;;;;;9.47;82.36;97656.88;5107875;28;20080;-83
2022/10/01 06:35:32;;;;;;;3.85;2.63;;;;;;;9.54;81.48;97654.72;5106669;28;20164;-85
2022/10/01 06:38:02;;;;;;;3.33;2.35;;;;;;;9.36;82.94;97623.34;5102453;28;20054;-85
2022/10/01 06:40:28;;;;;;;2.72;2.40;;;;;;;9.32;83.63;97649.72;5100832;28;20878;-84
2022/10/01 06:42:57;;;;;;;3.45;2.45;;;;;;;9.27;82.54;97624.94;5100898;28;20031;-84
2022/10/01 06:45:27;;;;;;;3.33;2.45;;;;;;;9.29;83.11;97633.47;5100368;28;20142;-84
2022/10/01 06:47:56;;;;;;;2.22;1.98;;;;;;;9.23;83.89;97634.53;5104793;28;20414;-84
2022/10/01 06:50:23;;;;;;;2.08;1.88;;;;;;;9.27;84.21;97655.03;5105303;28;20043;-85
2022/10/01 06:52:49;;;;;;;2.50;2.30;;;;;;;9.37;83.32;97639.03;5103114;28;20468;-85
2022/10/01 06:55:20;;;;;;;3.55;2.42;;;;;;;9.40;83.84;97664.34;5102637;28;20506;-85
2022/10/01 06:57:47;;;;;;;2.10;1.90;;;;;;;9.22;83.85;97659.59;5090611;28;20032;-85
2022/10/01 07:00:13;;;;;;;2.22;2.03;;;;;;;9.14;83.04;97636.97;5105104;28;20024;-85
2022/10/01 07:02:39;;;;;;;5.63;2.20;;;;;;;9.43;83.61;97679.78;5102545;28;20068;-86
2022/10/01 07:05:06;;;;;;;2.13;1.92;;;;;;;9.51;83.45;97689.88;5106881;28;21858;-85
2022/10/01 07:07:34;;;;;;;4.40;2.00;;;;;;;9.57;82.89;97681.59;5105145;28;20020;-84
2022/10/01 07:10:00;;;;;;;1.75;1.58;;;;;;;9.46;84.10;97690.69;5104403;28;20043;-84
2022/10/01 07:12:26;;;;;;;5.07;1.95;;;;;;;9.14;84.71;97639.63;5103379;28;20523;-85
2022/10/01 07:14:52;;;;;;;2.33;1.70;;;;;;;9.32;84.84;97671.03;5108128;28;20028;-85
2022/10/01 07:17:18;;;;;;;5.35;1.77;;;;;;;9.40;85.23;97673.13;5107714;28;20024;-85
2022/10/01 07:19:43;;;;;;;4.05;2.30;;;;;;;9.38;84.60;97648.63;5101756;28;20526;-85
2022/10/01 07:22:08;;;;;;;1.67;1.58;;;;;;;9.50;84.45;97670.44;5095738;28;20131;-86
2022/10/01 07:24:34;;;;;;;1.45;1.35;;;;;;;9.38;86.04;97680.59;5109145;28;20035;-85
2022/10/01 07:26:59;;;;;;;1.60;1.50;;;;;;;9.29;84.34;97631.59;5110228;28;20032;-85
2022/10/01 07:29:26;;;;;;;1.80;1.38;;;;;;;9.44;85.17;97673.38;5108924;28;20067;-85
2022/10/01 07:31:56;;;;;;;1.58;1.48;;;;;;;9.19;86.38;97636.97;5112072;28;20061;-84
2022/10/01 07:34:23;;;;;;;1.55;1.45;;;;;;;9.29;85.07;97617.50;5108300;28;20024;-84
2022/10/01 07:36:49;;;;;;;1.83;1.58;;;;;;;9.24;85.26;97609.53;5108562;27;20023;-84
2022/10/01 07:39:15;;;;;;;2.10;1.90;;;;;;;9.21;86.90;97626.03;5106484;28;20980;-82
2022/10/01 07:41:41;;;;;;;2.40;2.20;;;;;;;9.47;84.74;97644.34;5111726;28;20034;-83
2022/10/01 07:44:07;;;;;;;5.93;3.90;;;;;;;9.48;85.19;97637.94;5107567;28;20505;-84
2022/10/01 07:46:32;;;;;;;4.80;4.07;;;;;;;9.39;85.48;97647.56;5109650;28;20035;-84
2022/10/01 07:48:57;;;;;;;4.97;4.50;;;;;;;9.43;85.88;97666.47;5089555;28;20111;-84
2022/10/01 07:51:25;;;;;;;4.35;3.42;;;;;;;9.25;86.24;97643.06;5089812;28;20063;-84
2022/10/01 07:53:51;;;;;;;5.28;3.50;;;;;;;9.56;86.29;97676.56;5092087;28;20030;-84
2022/10/01 07:56:17;;;;;;;5.47;2.65;;;;;;;9.55;85.56;97677.63;5106555;27;20379;-83
2022/10/01 07:58:44;;;;;;;3.10;2.50;;;;;;;9.41;85.39;97641.97;5111968;28;20477;-84
2022/10/01 08:01:10;;;;;;;2.50;2.30;;;;;;;9.26;86.75;97642.00;5087037;28;20066;-84
2022/10/01 08:03:35;;;;;;;2.70;2.50;;;;;;;9.34;86.59;97655.56;5103816;28;20478;-84
2022/10/01 08:06:04;;;;;;;2.95;2.65;;;;;;;9.50;85.95;97662.44;5087857;28;20024;-83
2022/10/01 08:08:30;;;;;;;2.00;1.80;;;;;;;9.46;85.45;97673.91;5104275;28;20032;-84
2022/10/01 08:11:13;;;;;;;;;;;;;;;;;;;;;
2022/10/01 08:13:39;;;;;;;2.00;1.83;;;;;;;9.49;86.60;97676.03;5101642;28;20034;-83
2022/10/01 08:16:06;;;;;;;2.78;1.92;;;;;;;9.57;86.91;97668.28;5119726;27;20024;-82
2022/10/01 08:18:34;;;;;;;3.78;2.60;;;;;;;9.55;86.20;97673.09;5102008;28;20038;-83
2022/10/01 08:21:00;;;;;;;3.00;2.08;;;;;;;9.48;87.26;97672.56;5089141;28;20032;-82
2022/10/01 08:23:26;;;;;;;3.17;2.13;;;;;;;9.60;86.68;97667.75;5103800;28;20384;-83
2022/10/01 08:25:52;;;;;;;2.58;2.20;;;;;;;9.53;87.48;97666.44;5105014;28;20028;-83
2022/10/01 08:28:18;;;;;;;1.80;1.70;;;;;;;9.63;86.21;97683.19;5070550;27;20467;-82
2022/10/01 08:30:43;;;;;;;2.03;1.52;;;;;;;9.48;87.12;97664.56;5107356;28;20031;-82
2022/10/01 08:33:11;;;;;;;2.58;2.38;;;;;;;9.66;86.36;97676.53;5107042;28;20235;-83
2022/10/01 08:35:39;;;;;;;3.33;2.17;;;;;;;9.71;86.22;97679.19;5107817;28;20024;-83
2022/10/01 08:40:35;;;;;;;1.80;1.70;;;;;;;9.71;86.76;97687.16;5102527;28;20457;-71
2022/10/01 08:43:26;;;;;;;1.83;1.73;;;;;;;9.68;87.01;97690.38;5101402;28;20036;-71
2022/10/01 08:45:55;;;;;;;2.47;1.48;;;;;;;9.68;87.25;97677.84;5105037;28;20046;-71
2022/10/01 08:48:26;;;;;;;2.40;1.77;;;;;;;9.59;87.92;97676.00;5100222;28;20028;-70
2022/10/01 08:50:58;;;;;;;2.95;1.40;;;;;;;9.59;88.46;97676.81;5100000;27;20144;-71
2022/10/01 08:53:32;;;;;;;1.42;1.33;;;;;;;9.72;87.34;97680.75;5096690;28;20038;-71
2022/10/01 08:56:00;;;;;;;2.85;1.70;;;;;;;9.68;88.49;97683.19;5103028;28;20027;-71
2022/10/01 08:58:33;;;;;;;1.75;1.23;;;;;;;9.62;88.24;97665.63;5100348;28;20027;-71
2022/10/01 09:00:59;;;;;;;1.55;1.45;;;;;;;9.72;88.43;97678.91;5100793;27;20059;-74
2022/10/01 09:03:29;;;;;;;1.83;1.50;;;;;;;9.71;88.09;97676.50;5101362;28;20435;-71
2022/10/01 09:06:09;;;;;;;1.10;1.08;;;;;;;9.89;87.94;97675.94;5106750;28;20028;-71
2022/10/01 09:08:49;;;;;;;1.50;1.40;;;;;;;9.78;88.51;97680.47;5102547;28;20085;-71
2022/10/01 09:11:42;;;;;;;1.73;1.50;;;;;;;9.75;88.60;97662.38;5103963;28;20114;-70
2022/10/01 09:14:29;;;;;;;1.67;1.58;;;;;;;9.86;88.56;97647.16;5102806;28;20494;-70
2022/10/01 09:16:54;;;;;;;1.67;1.50;;;;;;;9.84;88.46;97681.28;5100722;28;20023;-70
2022/10/01 09:19:39;;;;;;;1.48;1.38;;;;;;;9.87;87.92;97678.06;5101524;28;20023;-71
2022/10/01 09:22:40;;;;;;;1.65;1.55;;;;;;;9.94;88.43;97677.78;5105018;28;20379;-71
2022/10/01 09:25:08;;;;;;;1.60;1.50;;;;;;;9.97;87.64;97680.69;5101826;28;20110;-71
2022/10/01 09:27:37;;;;;;;1.33;1.23;;;;;;;9.99;88.02;97678.53;5102583;28;20011;-70
2022/10/01 09:30:20;;;;;;;1.92;1.75;;;;;;;10.05;88.22;97684.63;5103830;28;20367;-71
2022/10/01 09:32:58;;;;;;;2.42;1.50;;;;;;;10.08;87.85;97682.25;5101720;28;20052;-71
2022/10/01 09:35:51;;;;;;;14.88;1.33;;;;;;;9.97;88.27;97686.03;5099590;28;20111;-69
2022/10/01 09:38:37;;;;;;;1.92;1.77;;;;;;;10.03;88.09;97679.59;5101755;27;20441;-70
2022/10/01 09:41:02;;;;;;;1.40;1.30;;;;;;;10.03;88.46;97679.59;5088556;27;20096;-69
2022/10/01 09:43:31;;;;;;;1.70;1.60;;;;;;;9.97;88.78;97683.34;5090938;27;20498;-68
2022/10/01 09:45:59;;;;;;;10.48;2.03;;;;;;;10.09;88.44;97681.16;5090672;28;20035;-70
2022/10/01 09:49:00;;;;;;;2.38;1.80;;;;;;;10.18;88.54;97676.88;5095606;28;20124;-70
2022/10/01 09:51:35;;;;;;;2.92;1.70;;;;;;;10.16;87.78;97687.03;5085400;28;20036;-70
2022/10/01 09:54:30;;;;;;;2.80;1.70;;;;;;;10.21;88.36;97680.88;5103753;28;20554;-70
2022/10/01 09:57:09;;;;;;;1.35;1.20;;;;;;;10.17;87.84;97664.63;5097737;28;20023;-70
2022/10/01 09:59:43;;;;;;;1.75;1.65;;;;;;;10.28;88.99;97684.84;5104069;28;20577;-70
2022/10/01 10:02:30;;;;;;;3.88;2.10;;;;;;;10.33;88.41;97678.69;5103119;28;20050;-70
2022/10/01 10:05:14;;;;;;;2.20;2.00;;;;;;;10.39;88.00;97673.06;5104100;28;20211;-70
2022/10/01 10:07:44;;;;;;;2.47;2.28;;;;;;;10.43;88.30;97668.75;5101829;28;20468;-70
2022/10/01 10:10:19;;;;;;;2.47;2.20;;;;;;;10.53;88.65;97675.88;5102686;28;20028;-70
2022/10/01 10:12:47;;;;;;;2.25;2.03;;;;;;;10.58;89.09;97678.53;5104802;28;20034;-70
2022/10/01 10:15:21;;;;;;;1.85;1.75;;;;;;;10.74;88.29;97688.03;5097839;28;20451;-70
2022/10/01 10:17:50;;;;;;;1.85;1.75;;;;;;;10.77;88.09;97684.03;5098662;28;20031;-70
2022/10/01 10:20:24;;;;;;;1.60;1.50;;;;;;;10.92;87.56;97689.25;5107692;27;20027;-71
2022/10/01 10:22:49;;;;;;;1.23;1.15;;;;;;;10.88;87.70;97680.19;5109794;28;20722;-70
2022/10/01 10:25:23;;;;;;;2.35;1.48;;;;;;;10.92;87.10;97684.69;5101727;28;20123;-70
2022/10/01 10:27:55;;;;;;;1.88;1.58;;;;;;;10.88;87.96;97682.84;5104631;28;20024;-70
2022/10/01 10:30:25;;;;;;;1.45;1.35;;;;;;;10.88;87.54;97686.31;5099143;28;20034;-70
2022/10/01 10:32:53;;;;;;;3.63;1.67;;;;;;;10.89;87.37;97687.13;5100831;28;20478;-70
2022/10/01 10:35:27;;;;;;;1.52;1.42;;;;;;;10.90;87.25;97686.84;5110033;28;20034;-70
2022/10/01 10:37:56;;;;;;;1.77;1.63;;;;;;;10.91;87.30;97687.66;5103700;28;20548;-70
2022/10/01 10:40:29;;;;;;;2.00;1.73;;;;;;;10.90;87.72;97702.84;5099964;28;20031;-70
2022/10/01 10:42:56;;;;;;;1.33;1.23;;;;;;;10.97;86.92;97702.53;5108976;28;20096;-70
2022/10/01 10:45:29;;;;;;;1.40;1.30;;;;;;;10.89;87.31;97698.59;5100212;28;20158;-70
2022/10/01 10:47:56;;;;;;;1.55;1.45;;;;;;;10.87;87.49;97711.44;5102233;28;20024;-70
2022/10/01 10:50:35;;;;;;;1.55;1.45;;;;;;;10.83;88.02;97704.25;5102760;28;20039;-70
2022/10/01 10:53:25;;;;;;;1.52;1.42;;;;;;;10.82;88.56;97708.78;5099484;28;20039;-70
2022/10/01 10:56:04;;;;;;;1.70;1.60;;;;;;;10.88;89.60;97698.88;5105302;28;20032;-70
2022/10/01 10:58:39;;;;;;;1.67;1.23;;;;;;;11.06;88.07;97714.22;5096548;28;20039;-71
2022/10/01 11:01:10;;;;;;;1.70;1.50;;;;;;;11.10;88.80;97710.72;5107175;28;20040;-70
2022/10/01 11:03:41;;;;;;;2.80;1.55;;;;;;;11.26;87.94;97719.41;5108366;28;20019;-70
2022/10/01 11:06:13;;;;;;;2.08;1.92;;;;;;;11.37;87.66;97720.13;5103738;28;20031;-70
2022/10/01 11:08:38;;;;;;;1.58;1.48;;;;;;;11.40;87.57;97720.34;5105857;28;20026;-70
2022/10/01 11:11:32;;;;;;;1.17;1.17;;;;;;;11.48;87.74;97729.63;5108850;28;20035;-70
2022/10/01 11:14:14;;;;;;;1.70;1.60;;;;;;;11.59;86.35;97723.13;5100629;28;20031;-70
2022/10/01 11:16:52;;;;;;;1.98;1.50;;;;;;;11.59;86.09;97733.81;5104814;28;20102;-70
2022/10/01 11:19:45;;;;;;;1.25;1.15;;;;;;;11.58;85.95;97737.53;5100476;28;20023;-70
2022/10/01 11:22:28;;;;;;;6.43;1.70;;;;;;;11.60;86.00;97736.19;5105208;28;20035;-70
2022/10/01 11:25:18;;;;;;;1.10;1.10;;;;;;;11.66;85.53;97748.44;5096414;28;20024;-70
2022/10/01 11:28:09;;;;;;;1.65;1.50;;;;;;;11.72;85.59;97739.31;5110648;28;20050;-70
2022/10/01 11:31:13;;;;;;;1.23;1.15;;;;;;;11.78;85.75;97742.72;5097050;28;20023;-70
2022/10/01 11:33:45;;;;;;;1.40;1.30;;;;;;;11.78;84.67;97759.56;5107332;28;20534;-70
2022/10/01 11:36:31;;;;;;;1.13;1.10;;;;;;;11.78;84.62;97756.09;5110708;28;20076;-70
2022/10/01 11:39:04;;;;;;;1.67;1.52;;;;;;;11.79;84.53;97755.03;5105954;28;20031;-70
2022/10/01 11:41:35;;;;;;;2.78;1.20;;;;;;;11.69;85.14;97761.25;5105250;28;20553;-70
2022/10/01 11:44:00;;;;;;;1.73;1.27;;;;;;;11.45;86.45;97747.03;5100758;28;20046;-70
2022/10/01 11:46:48;;;;;;;3.15;1.70;;;;;;;11.43;86.90;97749.19;5106850;28;20464;-70
2022/10/01 11:49:23;;;;;;;5.25;1.15;;;;;;;11.59;87.73;97734.63;5099963;28;20455;-70
2022/10/01 11:52:31;;;;;;;1.42;1.20;;;;;;;11.80;86.44;97737.91;5108120;28;20024;-70
2022/10/01 12:01:27;;;;;;;7.97;1.40;;;;;;;11.90;85.62;97743.94;5093065;28;20053;-70
2022/10/01 12:03:53;;;;;;;3.53;1.20;;;;;;;11.72;86.28;97743.88;5094237;28;20111;-70
2022/10/01 12:06:27;;;;;;;1.90;1.65;;;;;;;11.71;86.52;97743.06;5099676;28;20118;-70
2022/10/01 12:09:04;;;;;;;2.45;1.25;;;;;;;11.73;86.16;97740.91;5099358;28;20024;-70